Weather at Tuka STOLport

Public forecast

Using degrees Fahrenheit for public forecast. Weather courtesy of forecast.io.

Closest aviation weather report (METAR) to Tuka STOLport

Closest report is Sandpoint Airport, 20.5 nm (38.1 km) NW. Retrieved 2021/07/28 01:15 UTC (19 minutes ago):

KSZT 280115Z AUTO 21003KT 10SM CLR 25/10 A3005 RMK AO2

Closest aviation forecast (TAF) to Tuka STOLport

Closest forecast is Coeur D'Alene - Pappy Boyington Field, 33.9 nm (62.8 km) SW. Retrieved 2021-07-28 00:22 UTC (1 hour ago):

TAF KCOE 272320Z 2800/2824 24009KT P6SM VCSH BKN250 FM280300 15005KT P6SM BKN120 OVC150 FM281200 10004KT 6SM HZ BKN100 BKN250 FM281800 VRB04KT P6SM SCT100